createdAt,value
2019-03-28T00:00:36.557Z,8.12
2019-03-28T00:01:36.619Z,8.19
2019-03-28T00:02:37.005Z,8.19
2019-03-28T00:03:36.733Z,8.13
2019-03-28T00:04:36.797Z,8.16
2019-03-28T00:05:37.025Z,8.20
2019-03-28T00:06:36.926Z,8.31
2019-03-28T00:07:36.983Z,8.09
2019-03-28T00:08:37.043Z,8.26
2019-03-28T00:09:37.102Z,8.20
2019-03-28T00:10:37.165Z,8.12
2019-03-28T00:11:37.242Z,8.24
2019-03-28T00:12:37.291Z,8.20
2019-03-28T00:13:37.355Z,8.20
2019-03-28T00:14:37.411Z,8.28
2019-03-28T00:15:37.474Z,8.26
2019-03-28T00:16:37.543Z,8.24
2019-03-28T00:17:37.603Z,8.33
2019-03-28T00:18:37.654Z,8.30
2019-03-28T00:19:37.721Z,8.28
2019-03-28T00:20:37.785Z,8.38
2019-03-28T00:21:37.846Z,8.31
2019-03-28T00:22:37.911Z,8.34
2019-03-28T00:23:37.967Z,8.44
2019-03-28T00:24:38.027Z,8.46
2019-03-28T00:25:38.234Z,8.38
2019-03-28T00:26:38.163Z,8.37
2019-03-28T00:27:38.212Z,8.36
2019-03-28T00:28:38.270Z,8.44
2019-03-28T00:29:38.335Z,8.44
2019-03-28T00:30:38.395Z,8.38
2019-03-28T00:31:38.462Z,8.34
2019-03-28T00:32:38.523Z,8.44
2019-03-28T00:33:38.581Z,8.36
2019-03-28T00:34:38.638Z,8.42
2019-03-28T00:35:38.703Z,8.44
2019-03-28T00:36:38.786Z,8.38
2019-03-28T00:37:38.831Z,8.36
2019-03-28T00:38:38.886Z,8.34
2019-03-28T00:39:38.955Z,8.37
2019-03-28T00:40:39.011Z,8.31
2019-03-28T00:41:39.075Z,8.30
2019-03-28T00:42:39.155Z,8.34
2019-03-28T00:43:39.194Z,8.37
2019-03-28T00:44:39.256Z,8.33
2019-03-28T00:45:39.316Z,8.34
2019-03-28T00:46:39.383Z,8.26
2019-03-28T00:47:39.443Z,8.28
2019-03-28T00:48:39.503Z,8.24
2019-03-28T00:49:39.563Z,8.27
2019-03-28T00:50:39.623Z,8.19
2019-03-28T00:51:39.686Z,8.23
2019-03-28T00:52:39.751Z,8.27
2019-03-28T00:53:39.811Z,8.24
2019-03-28T00:54:39.867Z,8.26
2019-03-28T00:55:39.929Z,8.28
2019-03-28T00:56:46.875Z,8.24
2019-03-28T00:57:40.064Z,8.20
2019-03-28T00:58:40.122Z,8.23
2019-03-28T00:59:40.180Z,8.27
2019-03-28T01:00:40.348Z,8.27
2019-03-28T01:01:40.296Z,8.24
2019-03-28T01:02:40.364Z,8.27
2019-03-28T01:03:40.430Z,8.27
2019-03-28T01:04:40.480Z,8.24
2019-03-28T01:05:40.549Z,8.23
2019-03-28T01:06:40.601Z,8.24
2019-03-28T01:07:40.677Z,8.26
2019-03-28T01:08:40.745Z,8.24
2019-03-28T01:09:40.793Z,8.27
2019-03-28T01:10:40.852Z,8.26
2019-03-28T01:11:40.913Z,8.26
2019-03-28T01:12:40.980Z,8.31
2019-03-28T01:13:41.041Z,8.27
2019-03-28T01:14:41.097Z,8.24
2019-03-28T01:15:41.160Z,8.26
2019-03-28T01:16:41.221Z,8.31
2019-03-28T01:17:41.281Z,8.33
2019-03-28T01:18:41.696Z,8.34
2019-03-28T01:19:41.406Z,8.27
2019-03-28T01:20:41.465Z,8.31
2019-03-28T01:21:41.530Z,8.34
2019-03-28T01:22:41.589Z,8.34
2019-03-28T01:23:41.649Z,8.30
2019-03-28T01:24:41.801Z,8.31
2019-03-28T01:25:41.770Z,8.31
2019-03-28T01:26:41.838Z,8.31
2019-03-28T01:27:41.895Z,8.30
2019-03-28T01:28:41.957Z,8.26
2019-03-28T01:29:42.025Z,8.27
2019-03-28T01:30:42.092Z,8.34
2019-03-28T01:31:42.162Z,8.34
2019-03-28T01:32:42.202Z,8.34
2019-03-28T01:33:42.301Z,8.30
2019-03-28T01:34:42.331Z,8.38
2019-03-28T01:35:42.393Z,8.38
2019-03-28T01:36:42.446Z,8.36
2019-03-28T01:37:42.514Z,8.31
2019-03-28T01:38:42.570Z,8.44
2019-03-28T01:39:42.639Z,8.44
2019-03-28T01:40:42.702Z,8.36
2019-03-28T01:41:42.780Z,8.30
2019-03-28T01:42:42.819Z,8.34
2019-03-28T01:43:42.884Z,8.28
2019-03-28T01:44:43.184Z,8.27
2019-03-28T01:45:43.008Z,8.27
2019-03-28T01:46:43.064Z,8.31
2019-03-28T01:47:43.256Z,8.27
2019-03-28T01:48:43.183Z,8.31
2019-03-28T01:49:43.595Z,8.34
2019-03-28T01:50:43.307Z,8.31
2019-03-28T01:51:43.371Z,8.31
2019-03-28T01:52:43.432Z,8.34
2019-03-28T01:53:43.501Z,8.30
2019-03-28T01:54:43.552Z,8.33
2019-03-28T01:55:43.664Z,8.31
2019-03-28T01:56:43.676Z,8.34
2019-03-28T01:57:43.740Z,8.34
2019-03-28T01:58:43.801Z,8.28
2019-03-28T01:59:43.859Z,8.31
2019-03-28T02:00:43.927Z,8.34
2019-03-28T02:01:43.993Z,8.28
2019-03-28T02:02:44.043Z,8.31
2019-03-28T02:03:44.103Z,8.31
2019-03-28T02:04:44.165Z,8.30
2019-03-28T02:05:44.223Z,8.33
2019-03-28T02:06:44.392Z,8.33
2019-03-28T02:07:44.348Z,8.28
2019-03-28T02:08:44.436Z,8.27
2019-03-28T02:09:44.473Z,8.28
2019-03-28T02:10:44.535Z,8.27
2019-03-28T02:11:44.603Z,8.27
2019-03-28T02:12:44.664Z,8.24
2019-03-28T02:13:44.715Z,8.26
2019-03-28T02:14:44.780Z,8.30
2019-03-28T02:15:44.840Z,8.33
2019-03-28T02:16:44.913Z,8.33
2019-03-28T02:17:44.972Z,8.33
2019-03-28T02:18:45.024Z,8.31
2019-03-28T02:19:45.188Z,8.23
2019-03-28T02:20:45.144Z,8.30
2019-03-28T02:21:45.309Z,8.28
2019-03-28T02:22:45.324Z,8.28
2019-03-28T02:23:45.328Z,8.31
2019-03-28T02:24:45.395Z,8.34
2019-03-28T02:25:45.453Z,8.26
2019-03-28T02:26:45.521Z,8.34
2019-03-28T02:27:45.589Z,8.26
2019-03-28T02:28:45.637Z,8.34
2019-03-28T02:29:45.699Z,8.31
2019-03-28T02:30:45.757Z,8.31
2019-03-28T02:31:45.842Z,8.36
2019-03-28T02:32:45.894Z,8.37
2019-03-28T02:33:45.948Z,8.38
2019-03-28T02:34:48.968Z,8.42
2019-03-28T02:35:46.065Z,8.34
2019-03-28T02:36:46.141Z,8.38
2019-03-28T02:37:46.215Z,8.45
2019-03-28T02:38:46.260Z,8.38
2019-03-28T02:39:46.311Z,8.37
2019-03-28T02:40:46.378Z,8.34
2019-03-28T02:41:46.462Z,8.41
2019-03-28T02:42:46.502Z,8.41
2019-03-28T02:43:46.557Z,8.38
2019-03-28T02:44:46.622Z,8.37
2019-03-28T02:45:46.684Z,8.46
2019-03-28T02:46:46.746Z,8.48
2019-03-28T02:47:46.811Z,8.42
2019-03-28T02:48:46.862Z,8.34
2019-03-28T02:49:46.931Z,8.44
2019-03-28T02:50:46.992Z,8.36
2019-03-28T02:51:47.058Z,8.44
2019-03-28T02:52:47.514Z,8.37
2019-03-28T02:53:47.170Z,8.41
2019-03-28T02:54:47.230Z,8.37
2019-03-28T02:55:47.291Z,8.45
2019-03-28T02:56:47.368Z,8.48
2019-03-28T02:57:47.426Z,8.38
2019-03-28T02:58:47.479Z,8.41
2019-03-28T02:59:47.539Z,8.41
2019-03-28T03:00:48.045Z,8.38
2019-03-28T03:01:47.677Z,8.48
2019-03-28T03:02:47.732Z,8.36
2019-03-28T03:03:47.783Z,8.45
2019-03-28T03:04:47.847Z,8.33
2019-03-28T03:05:47.915Z,8.38
2019-03-28T03:06:47.974Z,8.41
2019-03-28T03:07:48.047Z,8.37
2019-03-28T03:08:48.092Z,8.41
2019-03-28T03:09:48.152Z,8.41
2019-03-28T03:10:48.212Z,8.42
2019-03-28T03:11:48.274Z,8.38
2019-03-28T03:12:48.393Z,8.38
2019-03-28T03:13:48.454Z,8.38
2019-03-28T03:14:48.457Z,8.34
2019-03-28T03:15:48.519Z,8.37
2019-03-28T03:16:49.002Z,8.33
2019-03-28T03:17:48.657Z,8.36
2019-03-28T03:18:48.707Z,8.30
2019-03-28T03:19:48.769Z,8.34
2019-03-28T03:20:48.834Z,8.30
2019-03-28T03:21:48.890Z,8.31
2019-03-28T03:22:48.959Z,8.31
2019-03-28T03:23:49.020Z,8.36
2019-03-28T03:24:49.072Z,8.28
2019-03-28T03:25:49.137Z,8.34
2019-03-28T03:26:49.198Z,8.36
2019-03-28T03:27:57.804Z,8.31
2019-03-28T03:28:49.317Z,8.36
2019-03-28T03:29:49.376Z,8.42
2019-03-28T03:30:49.437Z,8.34
2019-03-28T03:31:49.502Z,8.27
2019-03-28T03:32:49.601Z,8.33
2019-03-28T03:33:49.633Z,8.33
2019-03-28T03:34:49.731Z,8.28
2019-03-28T03:35:49.748Z,8.34
2019-03-28T03:36:49.806Z,8.37
2019-03-28T03:37:49.874Z,8.30
2019-03-28T03:38:49.942Z,8.27
2019-03-28T03:39:49.988Z,8.26
2019-03-28T03:40:50.049Z,8.30
2019-03-28T03:41:50.110Z,8.26
2019-03-28T03:42:50.228Z,8.28
2019-03-28T03:43:50.236Z,8.30
2019-03-28T03:44:50.297Z,8.24
2019-03-28T03:45:50.358Z,8.28
2019-03-28T03:46:50.423Z,8.30
2019-03-28T03:47:50.484Z,8.26
2019-03-28T03:48:50.547Z,8.31
2019-03-28T03:49:50.608Z,8.33
2019-03-28T03:50:50.666Z,8.19
2019-03-28T03:51:50.726Z,8.34
2019-03-28T03:52:50.793Z,8.31
2019-03-28T03:53:50.863Z,8.26
2019-03-28T03:54:50.910Z,8.28
2019-03-28T03:55:50.971Z,8.33
2019-03-28T03:56:51.034Z,8.31
2019-03-28T03:57:51.101Z,8.28
2019-03-28T03:58:51.160Z,8.27
2019-03-28T03:59:51.229Z,8.26
2019-03-28T04:00:51.273Z,8.23
2019-03-28T04:01:51.338Z,8.27
2019-03-28T04:02:51.406Z,8.30
2019-03-28T04:03:51.474Z,8.27
2019-03-28T04:04:51.526Z,8.30
2019-03-28T04:05:51.583Z,8.31
2019-03-28T04:06:51.638Z,8.31
2019-03-28T04:07:51.710Z,8.34
2019-03-28T04:08:51.775Z,8.26
2019-03-28T04:09:51.824Z,8.34
2019-03-28T04:10:51.889Z,8.34
2019-03-28T04:11:51.946Z,8.30
2019-03-28T04:12:52.020Z,8.34
2019-03-28T04:13:52.079Z,8.31
2019-03-28T04:14:52.135Z,8.33
2019-03-28T04:15:52.191Z,8.34
2019-03-28T04:16:52.252Z,8.31
2019-03-28T04:17:52.332Z,8.27
2019-03-28T04:18:52.384Z,8.28
2019-03-28T04:19:52.451Z,8.34
2019-03-28T04:20:52.496Z,8.27
2019-03-28T04:21:52.565Z,8.24
2019-03-28T04:22:52.628Z,8.33
2019-03-28T04:23:52.687Z,8.34
2019-03-28T04:24:52.743Z,8.31
2019-03-28T04:25:52.804Z,8.34
2019-03-28T04:26:52.871Z,8.28
2019-03-28T04:27:52.933Z,8.34
2019-03-28T04:28:52.997Z,8.27
2019-03-28T04:29:53.048Z,8.30
2019-03-28T04:30:53.110Z,8.33
2019-03-28T04:31:53.172Z,8.27
2019-03-28T04:32:53.284Z,8.31
2019-03-28T04:33:53.292Z,8.34
2019-03-28T04:34:53.359Z,8.41
2019-03-28T04:35:53.415Z,8.33
2019-03-28T04:36:53.478Z,8.30
2019-03-28T04:37:53.544Z,8.36
2019-03-28T04:38:53.608Z,8.38
2019-03-28T04:39:53.668Z,8.30
2019-03-28T04:40:53.722Z,8.27
2019-03-28T04:41:53.785Z,8.34
2019-03-28T04:42:53.855Z,8.34
2019-03-28T04:43:55.945Z,8.36
2019-03-28T04:44:53.971Z,8.31
2019-03-28T04:45:54.028Z,8.38
2019-03-28T04:46:54.088Z,8.34
2019-03-28T04:47:54.148Z,8.31
2019-03-28T04:48:54.232Z,8.37
2019-03-28T04:49:54.273Z,8.37
2019-03-28T04:50:54.333Z,8.36
2019-03-28T04:51:54.397Z,8.37
2019-03-28T04:52:54.457Z,8.31
2019-03-28T04:53:56.346Z,8.44
2019-03-28T04:54:55.359Z,8.36
2019-03-28T04:55:54.641Z,8.38
2019-03-28T04:56:54.705Z,8.38
2019-03-28T04:57:55.394Z,8.38
2019-03-28T04:58:54.830Z,8.41
2019-03-28T04:59:54.893Z,8.45
2019-03-28T05:00:54.945Z,8.36
2019-03-28T05:02:02.988Z,8.41
2019-03-28T05:02:55.069Z,8.37
2019-03-28T05:03:55.133Z,8.44
2019-03-28T05:04:55.210Z,8.45
2019-03-28T05:05:55.257Z,8.34
2019-03-28T05:06:55.313Z,8.45
2019-03-28T05:07:55.374Z,8.42
2019-03-28T05:08:55.438Z,8.44
2019-03-28T05:09:55.501Z,8.46
2019-03-28T05:10:55.565Z,8.42
2019-03-28T05:11:55.617Z,8.46
2019-03-28T05:12:55.681Z,8.42
2019-03-28T05:13:55.742Z,8.45
2019-03-28T05:14:55.805Z,8.48
2019-03-28T05:15:55.870Z,8.44
2019-03-28T05:16:55.926Z,8.46
2019-03-28T05:17:55.985Z,8.44
2019-03-28T05:18:56.046Z,8.45
2019-03-28T05:19:56.391Z,8.42
2019-03-28T05:20:56.170Z,8.44
2019-03-28T05:21:56.477Z,8.42
2019-03-28T05:22:56.297Z,8.42
2019-03-28T05:23:56.355Z,8.48
2019-03-28T05:24:56.422Z,8.41
2019-03-28T05:25:56.484Z,8.42
2019-03-28T05:26:56.538Z,8.44
2019-03-28T05:27:56.601Z,8.34
2019-03-28T05:28:58.011Z,8.38
2019-03-28T05:29:56.723Z,8.45
2019-03-28T05:30:56.794Z,8.38
2019-03-28T05:31:56.917Z,8.38
2019-03-28T05:32:56.902Z,8.33
2019-03-28T05:33:57.076Z,8.38
2019-03-28T05:34:57.043Z,8.33
2019-03-28T05:35:57.103Z,8.41
2019-03-28T05:36:57.151Z,8.38
2019-03-28T05:37:57.212Z,8.41
2019-03-28T05:38:57.272Z,8.45
2019-03-28T05:39:57.438Z,8.44
2019-03-28T05:40:57.395Z,8.44
2019-03-28T05:41:57.459Z,8.37
2019-03-28T05:42:57.522Z,8.44
2019-03-28T05:43:57.581Z,8.48
2019-03-28T05:44:57.647Z,8.42
2019-03-28T05:45:57.715Z,8.45
2019-03-28T05:46:57.763Z,8.46
2019-03-28T05:48:00.220Z,8.38
2019-03-28T05:48:57.884Z,8.48
2019-03-28T05:49:57.953Z,8.42
2019-03-28T05:50:58.020Z,8.45
2019-03-28T05:51:58.069Z,8.45
2019-03-28T05:52:58.132Z,8.46
2019-03-28T05:53:58.194Z,8.44
2019-03-28T05:54:58.292Z,8.49
2019-03-28T05:55:58.316Z,8.45
2019-03-28T05:56:58.375Z,8.44
2019-03-28T05:57:58.448Z,8.46
2019-03-28T05:59:10.160Z,8.48
2019-03-28T05:59:58.568Z,8.49
2019-03-28T06:00:58.630Z,8.51
2019-03-28T06:01:58.680Z,8.51
2019-03-28T06:02:58.740Z,8.55
2019-03-28T06:03:58.804Z,8.49
2019-03-28T06:04:58.872Z,8.58
2019-03-28T06:05:58.933Z,8.56
2019-03-28T06:06:58.988Z,8.58
2019-03-28T06:07:59.049Z,8.52
2019-03-28T06:08:59.113Z,8.56
2019-03-28T06:09:59.201Z,8.52
2019-03-28T06:10:59.234Z,8.53
2019-03-28T06:11:59.302Z,8.60
2019-03-28T06:12:59.359Z,8.58
2019-03-28T06:13:59.421Z,8.61
2019-03-28T06:14:59.485Z,8.64
2019-03-28T06:15:59.545Z,8.63
2019-03-28T06:16:59.601Z,8.61
2019-03-28T06:17:59.660Z,8.58
2019-03-28T06:18:59.725Z,8.53
2019-03-28T06:19:59.797Z,8.60
2019-03-28T06:20:59.853Z,8.63
2019-03-28T06:21:59.910Z,8.64
2019-03-28T06:22:59.969Z,8.61
2019-03-28T06:24:00.032Z,8.64
2019-03-28T06:25:00.361Z,8.66
2019-03-28T06:26:00.155Z,8.63
2019-03-28T06:27:00.213Z,8.63
2019-03-28T06:28:00.277Z,8.61
2019-03-28T06:29:00.337Z,8.64
2019-03-28T06:30:01.969Z,8.67
2019-03-28T06:31:00.467Z,8.67
2019-03-28T06:32:00.522Z,8.67
2019-03-28T06:33:00.586Z,8.67
2019-03-28T06:34:00.711Z,8.69
2019-03-28T06:35:00.714Z,8.67
2019-03-28T06:36:02.202Z,8.73
2019-03-28T06:37:00.829Z,8.69
2019-03-28T06:38:00.890Z,8.73
2019-03-28T06:39:00.954Z,8.76
2019-03-28T06:40:01.018Z,8.71
2019-03-28T06:41:01.081Z,8.74
2019-03-28T06:42:01.137Z,8.78
2019-03-28T06:43:01.202Z,8.74
2019-03-28T06:44:01.258Z,8.82
2019-03-28T06:45:03.754Z,8.78
2019-03-28T06:46:01.386Z,8.79
2019-03-28T06:47:01.447Z,8.84
2019-03-28T06:48:01.502Z,8.81
2019-03-28T06:49:01.563Z,8.76
2019-03-28T06:50:01.631Z,8.85
2019-03-28T06:51:01.700Z,8.85
2019-03-28T06:52:01.752Z,8.84
2019-03-28T06:53:01.817Z,8.87
2019-03-28T06:54:01.876Z,8.87
2019-03-28T06:55:01.938Z,8.88
2019-03-28T06:56:02.010Z,8.89
2019-03-28T06:57:02.059Z,8.88
2019-03-28T06:58:02.121Z,8.91
2019-03-28T06:59:02.187Z,8.87
2019-03-28T07:00:02.256Z,8.92
2019-03-28T07:01:02.303Z,8.91
2019-03-28T07:02:02.363Z,8.89
2019-03-28T07:03:02.424Z,8.97
2019-03-28T07:04:02.487Z,8.94
2019-03-28T07:05:02.558Z,9.00
2019-03-28T07:06:02.621Z,9.00
2019-03-28T07:07:02.675Z,9.08
2019-03-28T07:08:02.733Z,9.08
2019-03-28T07:09:02.799Z,9.08
2019-03-28T07:10:02.970Z,9.11
2019-03-28T07:11:02.923Z,9.19
2019-03-28T07:12:02.980Z,9.13
2019-03-28T07:13:03.039Z,9.25
2019-03-28T07:14:03.101Z,9.26
2019-03-28T07:15:03.507Z,9.23
2019-03-28T07:16:03.227Z,9.25
2019-03-28T07:17:03.288Z,9.14
2019-03-28T07:18:03.348Z,9.25
2019-03-28T07:19:03.412Z,9.23
2019-03-28T07:20:03.472Z,9.22
2019-03-28T07:21:03.586Z,9.36
2019-03-28T07:22:03.632Z,9.34
2019-03-28T07:23:03.656Z,9.40
2019-03-28T07:24:03.716Z,9.40
2019-03-28T07:25:03.780Z,9.47
2019-03-28T07:26:03.853Z,9.41
2019-03-28T07:27:03.908Z,9.47
2019-03-28T07:28:06.310Z,9.50
2019-03-28T07:29:04.028Z,9.51
2019-03-28T07:30:04.087Z,9.50
2019-03-28T07:31:04.160Z,9.55
2019-03-28T07:32:04.211Z,9.61
2019-03-28T07:33:04.274Z,9.58
2019-03-28T07:34:04.333Z,9.54
2019-03-28T07:35:04.397Z,9.64
2019-03-28T07:36:04.465Z,9.62
2019-03-28T07:37:04.524Z,9.69
2019-03-28T07:38:04.582Z,9.73
2019-03-28T07:39:04.641Z,9.72
2019-03-28T07:40:04.706Z,9.69
2019-03-28T07:41:04.773Z,9.83
2019-03-28T07:42:04.839Z,9.82
2019-03-28T07:43:04.890Z,9.69
2019-03-28T07:44:04.953Z,9.83
2019-03-28T07:45:05.015Z,9.74
2019-03-28T07:46:05.164Z,9.84
2019-03-28T07:47:05.141Z,9.86
2019-03-28T07:48:05.197Z,9.94
2019-03-28T07:49:05.268Z,9.94
2019-03-28T07:50:05.323Z,10.04
2019-03-28T07:51:05.389Z,10.01
2019-03-28T07:52:05.458Z,10.02
2019-03-28T07:53:05.514Z,10.12
2019-03-28T07:54:05.571Z,10.05
2019-03-28T07:55:05.875Z,10.17
2019-03-28T07:56:05.703Z,10.10
2019-03-28T07:57:05.765Z,10.20
2019-03-28T07:58:07.463Z,10.20
2019-03-28T07:59:05.883Z,10.25
2019-03-28T08:00:05.942Z,10.25
2019-03-28T08:01:06.009Z,10.25
2019-03-28T08:02:06.085Z,10.37
2019-03-28T08:03:06.134Z,10.34
2019-03-28T08:04:06.219Z,10.37
2019-03-28T08:05:06.260Z,10.40
2019-03-28T08:06:06.330Z,10.41
2019-03-28T08:07:06.381Z,10.44
2019-03-28T08:08:06.442Z,10.38
2019-03-28T08:09:06.504Z,10.38
2019-03-28T08:10:06.566Z,10.41
2019-03-28T08:11:06.634Z,10.44
2019-03-28T08:12:21.389Z,10.46
2019-03-28T08:13:06.750Z,10.49
2019-03-28T08:14:06.812Z,10.56
2019-03-28T08:15:06.879Z,10.54
2019-03-28T08:16:06.949Z,10.63
2019-03-28T08:17:07.006Z,10.72
2019-03-28T08:18:07.062Z,10.75
2019-03-28T08:19:08.124Z,10.76
2019-03-28T08:20:07.441Z,10.82
2019-03-28T08:21:07.272Z,10.76
2019-03-28T08:22:07.316Z,10.76
2019-03-28T08:23:07.379Z,10.76
2019-03-28T08:24:07.435Z,10.75
2019-03-28T08:25:11.221Z,10.79
2019-03-28T08:26:07.566Z,10.84
2019-03-28T08:27:07.631Z,10.87
2019-03-28T08:28:07.689Z,10.96
2019-03-28T08:29:07.750Z,10.87
2019-03-28T08:30:18.087Z,10.89
2019-03-28T08:31:07.880Z,10.92
2019-03-28T08:32:08.933Z,10.84
2019-03-28T08:33:08.003Z,10.84
2019-03-28T08:34:08.062Z,10.90
2019-03-28T08:35:08.128Z,10.92
2019-03-28T08:36:08.195Z,10.94
2019-03-28T08:37:08.248Z,11.05
2019-03-28T08:38:09.953Z,11.11
2019-03-28T08:39:08.372Z,10.97
2019-03-28T08:40:08.436Z,10.93
2019-03-28T08:41:08.508Z,10.94
2019-03-28T08:42:08.567Z,10.96
2019-03-28T08:43:08.633Z,11.04
2019-03-28T08:44:08.696Z,11.10
2019-03-28T08:45:08.750Z,11.14
2019-03-28T08:46:09.003Z,11.18
2019-03-28T08:47:08.884Z,11.14
2019-03-28T08:48:08.936Z,11.11
2019-03-28T08:49:09.008Z,11.17
2019-03-28T08:50:09.061Z,11.12
2019-03-28T08:51:09.144Z,11.12
2019-03-28T08:52:11.710Z,11.12
2019-03-28T08:53:09.253Z,11.12
2019-03-28T08:54:09.312Z,11.19
2019-03-28T08:55:10.174Z,11.15
2019-03-28T08:56:09.446Z,11.02
2019-03-28T08:57:09.509Z,11.11
2019-03-28T08:58:09.565Z,11.26
2019-03-28T08:59:09.629Z,11.19
2019-03-28T09:00:09.691Z,11.33
2019-03-28T09:01:09.761Z,11.30
2019-03-28T09:02:09.821Z,11.41
2019-03-28T09:03:09.879Z,11.35
2019-03-28T09:04:09.941Z,11.40
2019-03-28T09:05:10.005Z,11.43
2019-03-28T09:06:10.117Z,11.37
2019-03-28T09:07:10.129Z,11.48
2019-03-28T09:08:10.191Z,11.37
2019-03-28T09:09:10.254Z,11.36
2019-03-28T09:10:10.313Z,11.36
2019-03-28T09:11:10.385Z,11.33
2019-03-28T09:12:10.449Z,11.33
2019-03-28T09:13:10.506Z,11.40
2019-03-28T09:14:10.568Z,11.40
2019-03-28T09:15:10.632Z,11.43
2019-03-28T09:16:10.700Z,11.37
2019-03-28T09:17:10.762Z,11.50
2019-03-28T09:18:10.818Z,11.37
2019-03-28T09:19:10.882Z,11.35
2019-03-28T09:20:10.938Z,11.52
2019-03-28T09:21:11.015Z,11.41
2019-03-28T09:22:11.074Z,11.43
2019-03-28T09:23:11.216Z,11.40
2019-03-28T09:24:11.203Z,11.36
2019-03-28T09:25:12.405Z,11.48
2019-03-28T09:26:11.378Z,11.44
2019-03-28T09:27:11.394Z,11.51
2019-03-28T09:28:11.447Z,11.51
2019-03-28T09:29:11.507Z,11.60
2019-03-28T09:30:11.570Z,11.73
2019-03-28T09:31:19.925Z,11.69
2019-03-28T09:32:11.703Z,11.73
2019-03-28T09:33:11.759Z,11.77
2019-03-28T09:34:11.825Z,11.78
2019-03-28T09:35:11.883Z,11.84
2019-03-28T09:36:12.027Z,11.81
2019-03-28T09:37:12.019Z,11.69
2019-03-28T09:38:12.071Z,11.80
2019-03-28T09:39:12.134Z,11.70
2019-03-28T09:40:12.207Z,11.68
2019-03-28T09:41:12.264Z,11.68
2019-03-28T09:42:12.351Z,11.68
2019-03-28T09:43:12.388Z,11.73
2019-03-28T09:44:12.451Z,11.81
2019-03-28T09:45:12.517Z,11.83
2019-03-28T09:46:12.575Z,11.91
2019-03-28T09:47:12.643Z,11.91
2019-03-28T09:48:12.707Z,11.99
2019-03-28T09:49:12.767Z,12.00
2019-03-28T09:50:12.835Z,11.97
2019-03-28T09:51:12.891Z,12.03
2019-03-28T09:52:12.964Z,12.09
2019-03-28T09:53:13.024Z,12.03
2019-03-28T09:54:13.080Z,12.09
2019-03-28T09:55:13.144Z,12.04
2019-03-28T09:56:13.204Z,12.06
2019-03-28T09:57:13.368Z,11.99
2019-03-28T09:58:13.336Z,12.02
2019-03-28T09:59:13.396Z,12.09
2019-03-28T10:00:13.460Z,12.04
2019-03-28T10:01:13.521Z,12.00
2019-03-28T10:02:13.592Z,12.13
2019-03-28T10:03:13.652Z,12.20
2019-03-28T10:04:13.708Z,12.25
2019-03-28T10:05:13.777Z,12.29
2019-03-28T10:06:13.838Z,12.39
2019-03-28T10:07:13.904Z,12.40
2019-03-28T10:08:13.969Z,12.58
2019-03-28T10:09:14.025Z,12.57
2019-03-28T10:10:14.088Z,12.62
2019-03-28T10:11:14.156Z,12.67
2019-03-28T10:12:14.401Z,12.73
2019-03-28T10:13:14.277Z,12.80
2019-03-28T10:14:14.344Z,13.04
2019-03-28T10:15:14.407Z,13.09
2019-03-28T10:16:14.470Z,13.16
2019-03-28T10:17:14.553Z,13.31
2019-03-28T10:18:14.601Z,13.46
2019-03-28T10:19:14.657Z,13.39
2019-03-28T10:20:14.725Z,13.49
2019-03-28T10:21:14.786Z,13.38
2019-03-28T10:22:14.857Z,13.49
2019-03-28T10:23:14.925Z,13.46
2019-03-28T10:24:14.981Z,13.42
2019-03-28T10:25:15.043Z,13.30
2019-03-28T10:26:15.106Z,13.25
2019-03-28T10:27:15.198Z,13.22
2019-03-28T10:28:15.239Z,13.12
2019-03-28T10:29:15.302Z,13.12
2019-03-28T10:30:15.360Z,13.13
2019-03-28T10:31:16.923Z,13.09
2019-03-28T10:32:15.495Z,13.09
2019-03-28T10:33:15.560Z,13.12
2019-03-28T10:34:15.614Z,13.12
2019-03-28T10:35:15.678Z,13.16
2019-03-28T10:36:15.742Z,13.15
2019-03-28T10:37:15.818Z,13.35
2019-03-28T10:38:15.875Z,13.37
2019-03-28T10:39:15.938Z,13.46
2019-03-28T10:40:15.998Z,13.47
2019-03-28T10:41:16.059Z,13.57
2019-03-28T10:42:16.474Z,13.54
2019-03-28T10:43:16.190Z,13.47
2019-03-28T10:44:16.251Z,13.50
2019-03-28T10:45:16.314Z,13.50
2019-03-28T10:46:16.383Z,13.53
2019-03-28T10:47:16.445Z,13.54
2019-03-28T10:48:16.616Z,13.56
2019-03-28T10:49:16.571Z,13.54
2019-03-28T10:50:16.638Z,13.71
2019-03-28T10:51:16.702Z,13.70
2019-03-28T10:52:16.765Z,13.87
2019-03-28T10:53:16.839Z,13.70
2019-03-28T10:54:20.351Z,13.71
2019-03-28T10:55:16.960Z,13.72
2019-03-28T10:56:21.856Z,13.75
2019-03-28T10:57:29.612Z,13.83
2019-03-28T10:58:19.203Z,13.92
2019-03-28T10:59:23.547Z,13.81
2019-03-28T11:00:24.114Z,13.96
2019-03-28T11:01:32.455Z,14.04
2019-03-28T11:02:17.408Z,14.25
2019-03-28T11:03:17.484Z,14.26
2019-03-28T11:04:17.544Z,14.23
2019-03-28T11:05:17.595Z,14.41
2019-03-28T11:06:17.667Z,14.47
2019-03-28T11:07:17.727Z,14.51
2019-03-28T11:08:17.796Z,14.60
2019-03-28T11:09:17.859Z,14.77
2019-03-28T11:10:17.920Z,14.70
2019-03-28T11:11:17.984Z,14.79
2019-03-28T11:12:18.045Z,14.84
2019-03-28T11:13:18.196Z,14.84
2019-03-28T11:14:18.172Z,14.82
2019-03-28T11:15:18.245Z,14.84
2019-03-28T11:16:18.305Z,14.92
2019-03-28T11:17:18.369Z,14.97
2019-03-28T11:18:18.437Z,14.82
2019-03-28T11:19:18.508Z,14.82
2019-03-28T11:20:18.564Z,14.88
2019-03-28T11:21:18.631Z,14.66
2019-03-28T11:22:18.688Z,14.78
2019-03-28T11:23:18.761Z,14.91
2019-03-28T11:24:18.829Z,15.00
2019-03-28T11:25:18.884Z,15.03
2019-03-28T11:26:18.950Z,15.06
2019-03-28T11:27:19.014Z,14.99
2019-03-28T11:28:19.349Z,14.99
2019-03-28T11:29:19.145Z,15.04
2019-03-28T11:30:19.213Z,15.09
2019-03-28T11:31:19.274Z,15.22
2019-03-28T11:32:19.339Z,15.52
2019-03-28T11:33:19.409Z,15.61
2019-03-28T11:34:19.473Z,15.73
2019-03-28T11:35:19.533Z,15.76
2019-03-28T11:36:19.596Z,15.65
2019-03-28T11:37:25.989Z,15.58
2019-03-28T11:38:19.733Z,15.72
2019-03-28T11:39:20.870Z,15.86
2019-03-28T11:40:19.857Z,15.82
2019-03-28T11:41:19.925Z,15.98
2019-03-28T11:42:19.985Z,16.02
2019-03-28T11:43:20.065Z,15.83
2019-03-28T11:44:20.125Z,15.97
2019-03-28T11:45:20.186Z,15.88
2019-03-28T11:46:20.250Z,15.83
2019-03-28T11:47:22.263Z,15.90
2019-03-28T11:48:20.387Z,15.88
2019-03-28T11:49:20.454Z,15.79
2019-03-28T11:50:20.511Z,16.00
2019-03-28T11:51:20.574Z,16.08
2019-03-28T11:52:20.691Z,16.24
2019-03-28T11:53:20.719Z,16.36
2019-03-28T11:54:20.779Z,16.33
2019-03-28T11:55:20.842Z,16.38
2019-03-28T11:56:20.904Z,16.53
2019-03-28T11:57:20.968Z,16.53
2019-03-28T11:58:21.042Z,16.35
2019-03-28T11:59:21.111Z,16.42
2019-03-28T12:00:21.168Z,16.23
2019-03-28T12:01:21.231Z,16.36
2019-03-28T12:02:21.294Z,16.20
2019-03-28T12:03:21.367Z,16.24
2019-03-28T12:04:21.435Z,16.23
2019-03-28T12:05:21.495Z,16.31
2019-03-28T12:06:21.559Z,16.33
2019-03-28T12:07:21.635Z,16.36
2019-03-28T12:08:21.695Z,16.28
2019-03-28T12:09:21.763Z,16.23
2019-03-28T12:10:21.820Z,16.23
2019-03-28T12:11:21.889Z,16.10
2019-03-28T12:12:21.951Z,16.02
2019-03-28T12:13:22.024Z,15.98
2019-03-28T12:14:22.093Z,16.01
2019-03-28T12:15:22.148Z,15.88
2019-03-28T12:16:22.215Z,15.86
2019-03-28T12:17:22.279Z,15.64
2019-03-28T12:18:25.003Z,15.83
2019-03-28T12:19:22.415Z,15.68
2019-03-28T12:20:22.480Z,15.90
2019-03-28T12:21:22.546Z,15.98
2019-03-28T12:22:22.614Z,16.01
2019-03-28T12:23:22.681Z,16.26
2019-03-28T12:24:22.747Z,16.29
2019-03-28T12:25:22.803Z,16.42
2019-03-28T12:26:22.877Z,16.60
2019-03-28T12:27:22.936Z,16.57
2019-03-28T12:28:23.008Z,16.24
2019-03-28T12:29:23.811Z,16.33
2019-03-28T12:30:23.132Z,16.41
2019-03-28T12:31:23.202Z,16.61
2019-03-28T12:32:23.264Z,16.75
2019-03-28T12:33:23.531Z,16.87
2019-03-28T12:34:23.396Z,16.94
2019-03-28T12:35:23.462Z,17.01
2019-03-28T12:36:23.529Z,16.97
2019-03-28T12:37:23.592Z,16.91
2019-03-28T12:38:23.668Z,16.71
2019-03-28T12:39:23.829Z,16.58
2019-03-28T12:40:23.793Z,16.54
2019-03-28T12:41:23.857Z,16.57
2019-03-28T12:42:23.923Z,16.47
2019-03-28T12:43:24.006Z,16.53
2019-03-28T12:44:24.072Z,16.58
2019-03-28T12:45:24.125Z,16.50
2019-03-28T12:46:25.666Z,16.60
2019-03-28T12:47:24.254Z,16.61
2019-03-28T12:48:24.318Z,16.32
2019-03-28T12:49:24.476Z,16.29
2019-03-28T12:50:24.450Z,16.23
2019-03-28T12:51:24.517Z,16.32
2019-03-28T12:52:24.581Z,16.53
2019-03-28T12:53:24.647Z,16.54
2019-03-28T12:54:24.735Z,16.60
2019-03-28T12:55:24.785Z,16.17
2019-03-28T12:56:26.384Z,15.90
2019-03-28T12:57:24.911Z,15.77
2019-03-28T12:58:24.977Z,15.83
2019-03-28T12:59:25.050Z,15.95
2019-03-28T13:00:25.147Z,16.09
2019-03-28T13:01:25.174Z,16.15
2019-03-28T13:02:31.387Z,16.24
2019-03-28T13:03:25.310Z,16.23
2019-03-28T13:04:25.390Z,16.28
2019-03-28T13:05:25.439Z,16.53
2019-03-28T13:06:25.503Z,16.58
2019-03-28T13:07:25.618Z,16.61
2019-03-28T13:08:25.634Z,16.69